Sublette, Kansas
Current Conditions -  °F | °C
As of 2:35 PM on Monday 26 Jan 2015 (Local Time) from KLBL Reporting Station
Clear Clear  
Wind Chill: 72°   Ceiling: Unl
Heat Index: 72°   Visibility: 10mi
Dew Point: 32°   Wind: 15mph
Humidity: 23%   Direction: 340°NNW
Pressure: 30.15"   Gusts: NA
Location:  37.48°N, 100.84°W
Report Text: KLBL 262035Z AUTO 34013KT 10SM CLR 22/00 A3015 RMK AO1
Loading
Personal Weather Stations






























Interactive Weather Map New forecast layout! Learn more

10-Day Weather Forecast

Advertisements
Track Severe Weather on mobile